Time;durP1;ratioP1;P1;durP2;ratioP2;P2;SDS_P1;SDS_P2;PMS_P1;PMS_P2;Temp;Humidity;BMP_temperature;BMP_pressure;BME280_temperature;BME280_humidity;BME280_pressure;Samples;Min_cycle;Max_cycle;Signal;HPM_P1;HPM_P2
2022/01/08 00:00:30;;;;;;;39.88;5.72;;;;;;;7.51;100.00;100850.19;5075634;28;20056;-51
2022/01/08 00:03:00;;;;;;;48.55;6.60;;;;;;;7.47;100.00;100853.03;5074836;28;20500;-51
2022/01/08 00:05:29;;;;;;;38.85;5.72;;;;;;;7.46;100.00;100851.31;5074524;28;20508;-50
2022/01/08 00:07:57;;;;;;;43.58;5.38;;;;;;;7.47;100.00;100839.84;5074707;28;20068;-51
2022/01/08 00:10:25;;;;;;;41.00;5.30;;;;;;;7.43;100.00;100836.44;5075065;28;20500;-51
2022/01/08 00:12:53;;;;;;;33.05;4.25;;;;;;;7.39;100.00;100841.00;5074697;28;20061;-50
2022/01/08 00:15:22;;;;;;;27.92;4.13;;;;;;;7.42;100.00;100838.25;5074719;28;20499;-51
2022/01/08 00:17:50;;;;;;;28.40;4.28;;;;;;;7.38;100.00;100838.44;5074925;28;20504;-50
2022/01/08 00:20:20;;;;;;;29.05;4.72;;;;;;;7.34;100.00;100829.78;5074802;28;20056;-50
2022/01/08 00:22:52;;;;;;;29.02;4.13;;;;;;;7.31;100.00;100827.28;5075656;28;20053;-49
2022/01/08 00:25:20;;;;;;;37.90;4.90;;;;;;;7.33;100.00;100830.75;5075184;28;20052;-51
2022/01/08 00:27:48;;;;;;;31.20;5.00;;;;;;;7.34;100.00;100827.16;5074446;28;20059;-51
2022/01/08 00:30:16;;;;;;;43.65;5.10;;;;;;;7.27;100.00;100841.56;5074724;28;20067;-51
2022/01/08 00:32:45;;;;;;;48.13;6.55;;;;;;;7.23;100.00;100837.34;5074123;28;20052;-50
2022/01/08 00:35:14;;;;;;;36.10;5.75;;;;;;;7.21;100.00;100841.81;5074111;28;20063;-51
2022/01/08 00:37:43;;;;;;;47.28;6.82;;;;;;;7.17;100.00;100829.69;5074681;28;20091;-51
2022/01/08 00:40:13;;;;;;;51.83;5.68;;;;;;;7.23;100.00;100826.78;5074182;28;20063;-50
2022/01/08 00:42:42;;;;;;;44.13;6.47;;;;;;;7.19;100.00;100827.81;5075420;28;20062;-51
2022/01/08 00:45:10;;;;;;;43.15;6.05;;;;;;;7.25;100.00;100823.16;5074265;28;20052;-50
2022/01/08 00:47:38;;;;;;;40.97;5.25;;;;;;;7.33;100.00;100819.31;5074431;28;20052;-51
2022/01/08 00:50:07;;;;;;;42.88;5.63;;;;;;;7.38;100.00;100815.56;5074147;28;20079;-51
2022/01/08 00:52:36;;;;;;;29.30;4.35;;;;;;;7.41;100.00;100818.06;5075018;28;20459;-50
2022/01/08 00:55:07;;;;;;;36.50;5.28;;;;;;;7.42;100.00;100822.41;5073891;28;20063;-51
2022/01/08 00:57:35;;;;;;;44.58;5.38;;;;;;;7.48;100.00;100823.06;5073850;28;20064;-51
2022/01/08 01:00:05;;;;;;;42.22;4.85;;;;;;;7.39;100.00;100814.63;5074328;28;20086;-51
2022/01/08 01:02:33;;;;;;;36.17;4.88;;;;;;;7.37;100.00;100819.13;5074046;28;20052;-51
2022/01/08 01:05:01;;;;;;;43.17;5.47;;;;;;;7.38;100.00;100812.91;5073811;28;20052;-51
2022/01/08 01:07:30;;;;;;;37.22;5.68;;;;;;;7.27;100.00;100812.53;5074020;28;20057;-51
2022/01/08 01:09:58;;;;;;;36.45;4.25;;;;;;;7.23;100.00;100808.31;5074962;28;20065;-51
2022/01/08 01:12:28;;;;;;;45.00;6.72;;;;;;;7.20;100.00;100803.16;5074593;28;20057;-51
2022/01/08 01:15:09;;;;;;;47.15;6.50;;;;;;;7.15;100.00;100800.72;5073664;28;20095;-52
2022/01/08 01:17:37;;;;;;;39.38;5.15;;;;;;;7.19;100.00;100807.56;5073939;28;20156;-51
2022/01/08 01:20:07;;;;;;;42.92;5.10;;;;;;;7.26;100.00;100797.59;5074469;28;20070;-51
2022/01/08 01:22:44;;;;;;;36.83;6.20;;;;;;;7.23;100.00;100792.50;5074721;28;20062;-49
2022/01/08 01:25:16;;;;;;;38.85;4.95;;;;;;;7.25;100.00;100790.63;5073589;28;20558;-50
2022/01/08 01:28:05;;;;;;;45.33;6.03;;;;;;;7.29;100.00;100786.91;5073609;28;20056;-50
2022/01/08 01:31:03;;;;;;;35.10;4.32;;;;;;;7.31;100.00;100790.34;5073805;28;20062;-51
2022/01/08 01:41:56;;;;;;;40.03;5.63;;;;;;;7.43;100.00;100805.66;5073426;28;20053;-51
2022/01/08 01:47:11;;;;;;;38.08;5.70;;;;;;;7.35;100.00;100807.78;5077767;28;20492;-50
2022/01/08 01:49:42;;;;;;;51.00;6.15;;;;;;;7.35;100.00;100801.66;5077431;28;20056;-51
2022/01/08 01:52:12;;;;;;;42.45;5.40;;;;;;;7.39;100.00;100803.22;5077434;28;20053;-50
2022/01/08 01:54:41;;;;;;;47.40;6.15;;;;;;;7.34;100.00;100789.38;5077389;28;20057;-51
2022/01/08 01:57:12;;;;;;;37.42;6.90;;;;;;;7.37;100.00;100798.00;5077587;28;20056;-51
2022/01/08 01:59:43;;;;;;;46.42;6.32;;;;;;;7.39;100.00;100790.88;5077477;28;20099;-51
2022/01/08 02:02:12;;;;;;;41.47;5.38;;;;;;;7.41;100.00;100773.19;5077190;28;20056;-50
2022/01/08 02:04:40;;;;;;;54.42;5.47;;;;;;;7.43;100.00;100781.91;5078074;28;20052;-49
2022/01/08 02:07:09;;;;;;;38.08;6.07;;;;;;;7.41;100.00;100780.25;5077640;28;20131;-51
2022/01/08 02:09:39;;;;;;;39.75;5.65;;;;;;;7.34;100.00;100769.09;5077384;28;20060;-50
2022/01/08 02:12:11;;;;;;;51.35;7.13;;;;;;;7.28;100.00;100774.66;5076769;28;20057;-51
2022/01/08 02:14:39;;;;;;;;;;;;;;;7.26;100.00;100781.78;5078391;28;20451;-48
2022/01/08 02:17:10;;;;;;;38.17;5.22;;;;;;;7.22;100.00;100781.06;5078161;28;19974;-51
2022/01/08 02:19:38;;;;;;;38.78;5.55;;;;;;;7.12;100.00;100790.28;5077453;28;20110;-50
2022/01/08 02:22:10;;;;;;;33.53;6.18;;;;;;;7.15;100.00;100789.31;5077001;28;20059;-48
2022/01/08 02:24:38;;;;;;;36.25;4.93;;;;;;;7.04;100.00;100788.00;5077749;28;20056;-49
2022/01/08 02:27:07;;;;;;;45.95;5.50;;;;;;;7.08;100.00;100775.53;5076749;28;20052;-51
2022/01/08 02:29:36;;;;;;;35.78;6.30;;;;;;;7.04;100.00;100782.72;5076735;28;20056;-50
2022/01/08 02:32:08;;;;;;;37.70;4.90;;;;;;;7.05;100.00;100779.16;5076744;28;20059;-49
2022/01/08 02:34:38;;;;;;;46.15;4.78;;;;;;;7.01;100.00;100780.22;5076697;28;20063;-52
2022/01/08 02:37:09;;;;;;;45.40;6.93;;;;;;;6.95;100.00;100782.25;5076651;28;20065;-49
2022/01/08 02:39:41;;;;;;;38.35;5.57;;;;;;;6.92;100.00;100772.69;5077652;28;20057;-48
2022/01/08 02:42:12;;;;;;;50.80;6.43;;;;;;;7.02;100.00;100768.72;5077362;28;20068;-51
2022/01/08 02:44:41;;;;;;;53.00;6.10;;;;;;;7.12;100.00;100773.63;5077683;28;20401;-51
2022/01/08 02:47:11;;;;;;;42.55;4.47;;;;;;;7.20;100.00;100771.50;5076382;28;20136;-51
2022/01/08 02:49:39;;;;;;;39.80;5.57;;;;;;;7.26;100.00;100771.22;5077396;28;20083;-51
2022/01/08 02:52:09;;;;;;;43.40;6.30;;;;;;;7.31;100.00;100774.50;5076626;28;20056;-52
2022/01/08 02:54:37;;;;;;;44.47;5.55;;;;;;;7.36;100.00;100772.56;5077363;28;20053;-51
2022/01/08 02:57:06;;;;;;;51.45;5.47;;;;;;;7.40;100.00;100768.84;5076919;28;20494;-51
2022/01/08 02:59:35;;;;;;;47.25;5.55;;;;;;;7.34;100.00;100779.66;5076054;28;20110;-51
2022/01/08 03:02:04;;;;;;;39.67;5.53;;;;;;;7.40;100.00;100768.00;5077033;28;20059;-51
2022/01/08 03:04:32;;;;;;;43.78;5.35;;;;;;;7.27;100.00;100759.75;5076410;28;20485;-51
2022/01/08 03:07:00;;;;;;;44.28;6.75;;;;;;;7.21;100.00;100752.97;5076341;28;20064;-49
2022/01/08 03:09:31;;;;;;;39.55;6.05;;;;;;;7.19;100.00;100744.25;5076623;28;20053;-49
2022/01/08 03:11:59;;;;;;;45.17;6.32;;;;;;;7.06;100.00;100738.66;5075892;28;20063;-50
2022/01/08 03:14:27;;;;;;;37.15;6.15;;;;;;;6.99;100.00;100731.97;5077051;28;20057;-50
2022/01/08 03:16:56;;;;;;;39.05;6.03;;;;;;;6.95;100.00;100751.47;5076160;28;20064;-51
2022/01/08 03:19:24;;;;;;;54.67;4.93;;;;;;;7.10;100.00;100743.81;5076335;28;20582;-50
2022/01/08 03:21:54;;;;;;;37.17;5.75;;;;;;;7.12;100.00;100748.09;5075643;28;20508;-51
2022/01/08 03:24:27;;;;;;;37.50;4.88;;;;;;;7.24;100.00;100742.25;5075433;28;20049;-49
2022/01/08 03:26:57;;;;;;;40.38;5.57;;;;;;;7.24;100.00;100738.78;5075521;28;20067;-49
2022/01/08 03:29:26;;;;;;;41.55;4.53;;;;;;;7.28;100.00;100743.00;5075328;28;20062;-50
2022/01/08 03:31:54;;;;;;;36.05;4.35;;;;;;;7.22;100.00;100738.00;5075524;28;20532;-51
2022/01/08 03:34:23;;;;;;;42.85;5.07;;;;;;;7.14;100.00;100740.09;5075811;28;20052;-49
2022/01/08 03:36:51;;;;;;;33.72;5.38;;;;;;;7.16;100.00;100727.69;5076542;28;20079;-51
2022/01/08 03:39:20;;;;;;;35.33;5.22;;;;;;;7.09;100.00;100731.53;5075661;28;20056;-49
2022/01/08 03:41:49;;;;;;;32.35;4.57;;;;;;;7.17;100.00;100717.09;5076335;28;20064;-51
2022/01/08 03:44:18;;;;;;;48.47;5.78;;;;;;;7.23;100.00;100711.53;5076417;28;20060;-49
2022/01/08 03:46:47;;;;;;;41.10;4.97;;;;;;;7.07;100.00;100711.34;5075504;28;20508;-50
2022/01/08 03:49:24;;;;;;;37.65;5.13;;;;;;;7.11;100.00;100709.47;5075162;28;20416;-51
2022/01/08 03:51:53;;;;;;;36.97;4.43;;;;;;;7.09;100.00;100699.88;5075519;28;20498;-51
2022/01/08 03:54:21;;;;;;;38.20;4.70;;;;;;;6.97;100.00;100696.00;5075130;28;20068;-51
2022/01/08 03:56:50;;;;;;;44.83;5.85;;;;;;;6.89;100.00;100693.69;5075483;28;20056;-51
2022/01/08 03:59:19;;;;;;;33.80;5.63;;;;;;;6.89;100.00;100688.41;5075589;28;20064;-51
2022/01/08 04:01:47;;;;;;;33.72;4.80;;;;;;;6.99;100.00;100700.31;5074844;28;20537;-51
2022/01/08 04:04:16;;;;;;;42.15;5.82;;;;;;;7.03;100.00;100707.16;5076075;28;20060;-51
2022/01/08 04:06:44;;;;;;;42.28;5.90;;;;;;;7.03;100.00;100707.16;5075437;28;20068;-49
2022/01/08 04:09:12;;;;;;;43.25;5.68;;;;;;;7.06;100.00;100701.75;5074605;28;20057;-50
2022/01/08 04:11:41;;;;;;;37.00;5.03;;;;;;;7.01;100.00;100693.19;5074719;28;20052;-49
2022/01/08 04:14:09;;;;;;;41.10;4.63;;;;;;;7.11;100.00;100684.84;5075346;28;20053;-51
2022/01/08 04:16:43;;;;;;;37.47;4.95;;;;;;;7.02;100.00;100688.75;5074935;28;20066;-51
2022/01/08 04:19:11;;;;;;;42.83;5.28;;;;;;;7.02;100.00;100686.97;5074650;28;20504;-51
2022/01/08 04:24:25;;;;;;;45.45;5.82;;;;;;;6.77;100.00;100683.69;5075127;28;20065;-49
2022/01/08 04:26:53;;;;;;;31.05;4.38;;;;;;;6.72;100.00;100672.50;5074506;28;20056;-50
2022/01/08 04:29:21;;;;;;;49.35;5.03;;;;;;;6.73;100.00;100666.31;5074421;28;20055;-50
2022/01/08 04:31:51;;;;;;;38.05;5.63;;;;;;;6.76;100.00;100658.25;5075320;28;20060;-49
2022/01/08 04:34:19;;;;;;;38.92;4.80;;;;;;;6.77;100.00;100650.25;5075104;28;20068;-49
2022/01/08 04:36:47;;;;;;;35.65;4.28;;;;;;;6.77;100.00;100646.78;5075211;28;20059;-50
2022/01/08 04:39:16;;;;;;;35.80;5.18;;;;;;;6.74;100.00;100639.00;5074862;28;20056;-50
2022/01/08 04:41:44;;;;;;;47.45;5.38;;;;;;;6.84;100.00;100627.13;5075090;28;20068;-49
2022/01/08 04:44:12;;;;;;;37.35;4.55;;;;;;;6.77;100.00;100620.41;5075220;28;20063;-49
2022/01/08 04:46:41;;;;;;;29.35;3.63;;;;;;;6.70;100.00;100609.28;5074776;28;20052;-51
2022/01/08 04:49:11;;;;;;;41.13;5.70;;;;;;;6.84;100.00;100614.81;5074498;28;20064;-51
2022/01/08 04:51:39;;;;;;;47.20;5.07;;;;;;;6.93;100.00;100624.09;5075298;28;20096;-51
2022/01/08 04:54:07;;;;;;;38.55;4.60;;;;;;;6.85;100.00;100623.56;5074215;28;20522;-49
2022/01/08 04:56:35;;;;;;;39.90;4.63;;;;;;;6.81;100.00;100624.66;5074439;28;20061;-51
2022/01/08 04:59:04;;;;;;;41.78;5.97;;;;;;;6.85;100.00;100621.78;5074094;28;20053;-51
2022/01/08 05:01:32;;;;;;;47.67;5.63;;;;;;;6.82;100.00;100614.00;5074308;28;20056;-51
2022/01/08 05:04:02;;;;;;;41.53;5.15;;;;;;;6.93;100.00;100610.91;5074522;28;20064;-51
2022/01/08 05:06:31;;;;;;;43.53;5.00;;;;;;;6.92;100.00;100606.53;5074590;28;20052;-51
2022/01/08 05:09:00;;;;;;;42.25;4.60;;;;;;;6.96;100.00;100600.22;5073779;28;20060;-51
2022/01/08 05:11:28;;;;;;;37.53;5.03;;;;;;;6.98;100.00;100598.34;5074576;28;20056;-50
2022/01/08 05:13:57;;;;;;;48.28;5.57;;;;;;;6.98;100.00;100593.09;5073719;28;20064;-49
2022/01/08 05:16:28;;;;;;;41.30;5.43;;;;;;;7.02;100.00;100594.66;5074279;28;20057;-50
2022/01/08 05:18:57;;;;;;;37.40;6.20;;;;;;;7.05;100.00;100605.06;5074185;28;20540;-51
2022/01/08 05:21:27;;;;;;;32.65;4.15;;;;;;;7.14;100.00;100593.22;5077159;28;20317;-50
2022/01/08 05:23:58;;;;;;;47.33;7.00;;;;;;;7.22;100.00;100590.25;5078035;28;20063;-50
2022/01/08 05:26:27;;;;;;;48.50;5.83;;;;;;;7.13;100.00;100593.28;5079141;28;20070;-51
2022/01/08 05:28:56;;;;;;;39.72;5.28;;;;;;;7.15;100.00;100589.66;5079031;28;20592;-51
2022/01/08 05:31:25;;;;;;;35.53;4.60;;;;;;;7.16;100.00;100601.06;5078156;28;20052;-51
2022/01/08 05:33:53;;;;;;;35.50;4.07;;;;;;;7.16;100.00;100593.16;5077593;28;20059;-51
2022/01/08 05:36:22;;;;;;;38.92;5.95;;;;;;;7.22;100.00;100585.81;5078027;28;20068;-51
2022/01/08 05:38:50;;;;;;;39.30;5.35;;;;;;;7.25;100.00;100587.47;5077982;28;20439;-51
2022/01/08 05:41:20;;;;;;;50.25;5.03;;;;;;;7.27;100.00;100582.97;5078432;28;20064;-50
2022/01/08 05:43:48;;;;;;;36.75;5.22;;;;;;;7.29;100.00;100580.25;5078488;28;20064;-51
2022/01/08 05:46:16;;;;;;;50.38;5.45;;;;;;;7.29;100.00;100588.16;5077536;28;20110;-51
2022/01/08 05:48:44;;;;;;;43.33;5.22;;;;;;;7.36;100.00;100584.31;5077814;28;20052;-51
2022/01/08 05:51:13;;;;;;;36.83;5.40;;;;;;;7.38;100.00;100596.50;5077757;28;20500;-51
2022/01/08 05:53:41;;;;;;;44.70;5.57;;;;;;;7.46;100.00;100582.94;5077152;28;20052;-50
2022/01/08 05:56:09;;;;;;;36.63;5.55;;;;;;;7.47;100.00;100582.00;5078222;28;20057;-51
2022/01/08 05:58:40;;;;;;;25.90;4.88;;;;;;;7.50;100.00;100581.00;5077886;28;20053;-50
2022/01/08 06:01:08;;;;;;;41.97;4.68;;;;;;;7.58;100.00;100577.09;5077218;28;20063;-49
2022/01/08 06:03:36;;;;;;;32.97;6.25;;;;;;;7.63;100.00;100574.19;5078024;28;20070;-51
2022/01/08 06:06:05;;;;;;;38.88;4.40;;;;;;;7.69;100.00;100560.69;5077133;28;20056;-50
2022/01/08 06:08:33;;;;;;;41.15;5.55;;;;;;;7.74;100.00;100561.31;5077173;28;20064;-49
2022/01/08 06:11:01;;;;;;;38.58;5.47;;;;;;;7.77;100.00;100563.81;5077370;28;20408;-51
2022/01/08 06:13:29;;;;;;;34.70;4.95;;;;;;;7.82;100.00;100559.16;5077905;28;20056;-50
2022/01/08 06:15:59;;;;;;;37.50;4.95;;;;;;;7.82;100.00;100559.16;5078125;28;20052;-51
2022/01/08 06:18:27;;;;;;;28.08;4.18;;;;;;;7.82;100.00;100555.69;5078089;28;20083;-51
2022/01/08 06:20:59;;;;;;;32.13;3.83;;;;;;;7.86;100.00;100559.00;5077493;28;20067;-50
2022/01/08 06:23:27;;;;;;;36.50;3.63;;;;;;;7.86;100.00;100544.00;5077157;28;20531;-51
2022/01/08 06:25:55;;;;;;;37.25;4.03;;;;;;;7.80;100.00;100541.66;5077080;28;20386;-50
2022/01/08 06:28:23;;;;;;;35.30;4.03;;;;;;;7.77;100.00;100534.78;5077061;28;20057;-51
2022/01/08 06:30:52;;;;;;;26.17;3.90;;;;;;;7.75;100.00;100536.63;5076539;28;20067;-51
2022/01/08 06:33:22;;;;;;;28.77;2.85;;;;;;;7.73;100.00;100535.00;5077758;28;20060;-48
2022/01/08 06:35:51;;;;;;;36.13;3.88;;;;;;;7.66;100.00;100518.59;5076390;28;20135;-49
2022/01/08 06:38:20;;;;;;;29.25;3.60;;;;;;;7.63;100.00;100524.91;5076884;28;20056;-50
2022/01/08 06:40:48;;;;;;;28.45;4.60;;;;;;;7.60;100.00;100511.84;5077425;28;20083;-50
2022/01/08 06:43:16;;;;;;;29.85;3.42;;;;;;;7.60;100.00;100511.00;5077315;28;20057;-50
2022/01/08 06:45:44;;;;;;;31.92;3.90;;;;;;;7.53;100.00;100509.59;5076894;28;20115;-50
2022/01/08 06:48:13;;;;;;;34.58;5.57;;;;;;;7.50;100.00;100491.25;5077248;28;20057;-50
2022/01/08 06:50:42;;;;;;;30.73;3.63;;;;;;;7.48;100.00;100490.47;5076675;28;20060;-51
2022/01/08 06:53:11;;;;;;;34.85;3.67;;;;;;;7.43;100.00;100483.66;5077160;28;20060;-50
2022/01/08 06:55:39;;;;;;;33.65;4.03;;;;;;;7.43;100.00;100475.75;5076014;28;20072;-51
2022/01/08 06:58:07;;;;;;;27.92;4.72;;;;;;;7.49;100.00;100465.81;5076248;28;20060;-50
2022/01/08 07:00:35;;;;;;;33.47;4.95;;;;;;;7.52;100.00;100463.88;5076476;28;20064;-48
2022/01/08 07:03:05;;;;;;;44.50;6.10;;;;;;;7.52;100.00;100463.03;5076356;28;20053;-49
2022/01/08 07:05:34;;;;;;;43.17;5.20;;;;;;;7.58;100.00;100460.06;5076957;28;20462;-49
2022/01/08 07:08:03;;;;;;;43.78;5.18;;;;;;;7.57;100.00;100453.94;5076318;28;20075;-50
2022/01/08 07:10:32;;;;;;;34.03;4.57;;;;;;;7.66;100.00;100446.47;5076455;28;20083;-49
2022/01/08 07:13:00;;;;;;;27.95;4.55;;;;;;;7.66;100.00;100441.19;5076244;28;20059;-50
2022/01/08 07:15:29;;;;;;;29.00;4.53;;;;;;;7.64;100.00;100441.28;5076511;28;20432;-50
2022/01/08 07:17:57;;;;;;;27.85;4.00;;;;;;;7.66;100.00;100436.75;5075836;28;20064;-49
2022/01/08 07:20:25;;;;;;;14.75;3.50;;;;;;;7.82;100.00;100431.56;5076039;28;20135;-50
2022/01/08 07:22:54;;;;;;;27.25;3.20;;;;;;;7.95;100.00;100415.91;5075633;28;20509;-51
2022/01/08 07:25:23;;;;;;;23.33;3.75;;;;;;;7.95;100.00;100429.13;5075818;28;20521;-51
2022/01/08 07:27:52;;;;;;;22.88;3.58;;;;;;;7.90;100.00;100424.09;5075622;28;20432;-51
2022/01/08 07:30:20;;;;;;;23.17;3.53;;;;;;;7.91;100.00;100406.44;5076156;28;20086;-50
2022/01/08 07:32:51;;;;;;;15.63;2.88;;;;;;;7.90;100.00;100407.38;5076111;28;20060;-50
2022/01/08 07:35:22;;;;;;;26.80;3.17;;;;;;;7.93;100.00;100391.38;5075492;28;20117;-49
2022/01/08 07:37:51;;;;;;;18.58;3.40;;;;;;;7.88;100.00;100399.53;5075507;28;20531;-51
2022/01/08 07:40:21;;;;;;;20.27;2.97;;;;;;;7.98;100.00;100402.53;5075380;28;20053;-50
2022/01/08 07:42:51;;;;;;;28.05;2.70;;;;;;;7.94;100.00;100403.66;5075780;28;20064;-51
2022/01/08 07:45:19;;;;;;;14.73;2.53;;;;;;;7.97;100.00;100387.66;5076113;28;20056;-51
2022/01/08 07:47:48;;;;;;;19.98;3.83;;;;;;;7.94;100.00;100371.97;5076053;28;20061;-51
2022/01/08 07:50:16;;;;;;;12.90;2.33;;;;;;;7.90;100.00;100367.75;5075461;28;20424;-50
2022/01/08 07:52:45;;;;;;;12.88;2.67;;;;;;;7.90;100.00;100365.13;5075173;28;20056;-49
2022/01/08 07:55:14;;;;;;;16.20;2.30;;;;;;;7.92;100.00;100363.28;5074858;28;20052;-51
2022/01/08 07:57:42;;;;;;;13.98;2.10;;;;;;;7.86;100.00;100353.88;5075221;28;20064;-50
2022/01/08 08:00:13;;;;;;;17.85;2.33;;;;;;;7.91;100.00;100356.25;5075249;28;20423;-51
2022/01/08 08:02:41;;;;;;;12.85;1.98;;;;;;;7.82;100.00;100339.97;5075479;28;20053;-51
2022/01/08 08:05:10;;;;;;;16.60;2.47;;;;;;;7.78;100.00;100335.81;5075199;28;20056;-50
2022/01/08 08:07:40;;;;;;;13.68;1.75;;;;;;;7.91;100.00;100335.13;5074584;28;20060;-51
2022/01/08 08:10:11;;;;;;;14.82;2.72;;;;;;;7.94;100.00;100330.53;5074529;28;20052;-50
2022/01/08 08:12:39;;;;;;;15.00;2.00;;;;;;;8.02;100.00;100332.78;5074629;28;20056;-51
2022/01/08 08:15:08;;;;;;;14.82;2.33;;;;;;;8.01;100.00;100317.84;5074382;28;20060;-50
2022/01/08 08:17:38;;;;;;;15.20;2.55;;;;;;;8.04;100.00;100327.41;5074594;28;20070;-51
2022/01/08 08:20:07;;;;;;;16.52;2.40;;;;;;;8.10;100.00;100314.72;5075224;28;20102;-49
2022/01/08 08:22:36;;;;;;;21.80;3.97;;;;;;;8.15;100.00;100317.97;5074689;28;20056;-51
2022/01/08 08:25:04;;;;;;;19.02;2.35;;;;;;;8.24;100.00;100305.16;5074327;28;20053;-51
2022/01/08 08:27:33;;;;;;;18.48;2.60;;;;;;;8.18;100.00;100287.88;5074938;28;20091;-49
2022/01/08 08:30:01;;;;;;;21.35;3.40;;;;;;;8.27;100.00;100290.00;5074820;28;20508;-50
2022/01/08 08:32:29;;;;;;;21.52;3.25;;;;;;;8.36;100.00;100283.34;5074401;28;20508;-50
2022/01/08 08:34:59;;;;;;;26.67;3.78;;;;;;;8.35;100.00;100279.00;5074940;28;20404;-48
2022/01/08 08:37:28;;;;;;;27.75;3.45;;;;;;;8.38;100.00;100271.72;5074667;28;20060;-50
2022/01/08 08:39:56;;;;;;;27.30;3.15;;;;;;;8.35;100.00;100252.56;5074642;28;20060;-51
2022/01/08 08:42:24;;;;;;;18.30;2.60;;;;;;;8.41;100.00;100235.53;5074531;28;20052;-51
2022/01/08 08:44:52;;;;;;;19.50;2.65;;;;;;;8.43;100.00;100237.16;5073965;28;20431;-50
2022/01/08 08:47:20;;;;;;;21.27;3.00;;;;;;;8.47;100.00;100237.81;5074557;28;20420;-51
2022/01/08 08:49:49;;;;;;;17.58;2.25;;;;;;;8.54;100.00;100245.31;5074404;28;20052;-51
2022/01/08 08:52:18;;;;;;;21.08;2.67;;;;;;;8.57;100.00;100238.16;5075583;28;20057;-50
2022/01/08 08:54:47;;;;;;;18.75;2.83;;;;;;;8.59;100.00;100233.63;5073607;28;20070;-51
2022/01/08 08:57:15;;;;;;;21.10;3.80;;;;;;;8.64;100.00;100223.63;5074134;28;20052;-47
2022/01/08 08:59:43;;;;;;;19.92;3.00;;;;;;;8.65;100.00;100235.91;5074356;28;20056;-50
2022/01/08 09:02:11;;;;;;;18.85;2.88;;;;;;;8.65;100.00;100220.03;5074376;28;20052;-50
2022/01/08 09:04:40;;;;;;;17.98;2.25;;;;;;;8.68;100.00;100219.88;5074573;28;20504;-49
2022/01/08 09:07:09;;;;;;;10.38;2.60;;;;;;;8.57;100.00;100219.63;5074331;28;20057;-51
2022/01/08 09:09:39;;;;;;;18.35;2.95;;;;;;;8.53;100.00;100201.31;5074899;28;20060;-50
2022/01/08 09:12:09;;;;;;;18.27;2.53;;;;;;;8.52;100.00;100199.63;5074118;28;20052;-51
2022/01/08 09:14:41;;;;;;;17.83;2.33;;;;;;;8.44;100.00;100180.72;5074632;28;20127;-50
2022/01/08 09:17:11;;;;;;;14.20;3.20;;;;;;;8.46;100.00;100181.47;5074481;28;20057;-50
2022/01/08 09:19:39;;;;;;;14.63;2.28;;;;;;;8.57;100.00;100177.34;5074178;28;20059;-51
2022/01/08 09:22:07;;;;;;;12.80;3.53;;;;;;;8.61;100.00;100176.19;5073864;28;20056;-51
2022/01/08 09:24:37;;;;;;;12.73;2.17;;;;;;;8.62;100.00;100162.06;5074657;28;20056;-51
2022/01/08 09:27:07;;;;;;;12.20;2.70;;;;;;;8.65;100.00;100151.28;5074139;28;20059;-50
2022/01/08 09:29:35;;;;;;;18.00;2.50;;;;;;;8.64;100.00;100155.75;5074432;28;20057;-51
2022/01/08 09:32:05;;;;;;;16.90;2.47;;;;;;;8.62;100.00;100152.31;5074082;28;20070;-51
2022/01/08 09:34:33;;;;;;;14.02;2.38;;;;;;;8.59;100.00;100155.16;5073760;28;20060;-51
2022/01/08 09:37:02;;;;;;;12.73;2.28;;;;;;;8.58;100.00;100160.53;5073743;28;20508;-50
2022/01/08 09:39:30;;;;;;;14.55;2.45;;;;;;;8.51;100.00;100129.19;5074029;28;20052;-50
2022/01/08 09:41:58;;;;;;;14.02;2.30;;;;;;;8.44;100.00;100125.19;5073649;28;20056;-49
2022/01/08 09:44:28;;;;;;;18.00;3.17;;;;;;;8.38;100.00;100114.94;5073688;28;20496;-50
2022/01/08 09:46:56;;;;;;;19.60;2.50;;;;;;;8.36;100.00;100098.34;5073596;28;20056;-51
2022/01/08 09:49:25;;;;;;;22.92;3.05;;;;;;;8.39;100.00;100106.09;5073574;28;20393;-49
2022/01/08 09:51:53;;;;;;;20.90;2.97;;;;;;;8.42;100.00;100092.66;5074124;28;20063;-51
2022/01/08 09:54:21;;;;;;;23.15;4.20;;;;;;;8.48;100.00;100087.06;5074657;28;20407;-50
2022/01/08 09:56:49;;;;;;;17.88;2.42;;;;;;;8.38;100.00;100084.06;5073729;28;20063;-51
2022/01/08 09:59:17;;;;;;;15.80;2.58;;;;;;;8.34;100.00;100073.81;5073781;28;20060;-51
2022/01/08 10:01:54;;;;;;;20.00;2.95;;;;;;;8.32;100.00;100065.97;5074339;28;20053;-49
2022/01/08 10:04:24;;;;;;;16.77;2.78;;;;;;;8.31;100.00;100072.19;5074022;28;20052;-51
2022/01/08 10:06:53;;;;;;;16.05;2.35;;;;;;;8.39;100.00;100058.53;5075687;28;20496;-51
2022/01/08 10:09:21;;;;;;;24.88;3.03;;;;;;;8.41;100.00;100053.97;5077055;28;20060;-51
2022/01/08 10:11:50;;;;;;;18.08;3.80;;;;;;;8.33;100.00;100040.38;5077316;28;20424;-51
2022/01/08 10:14:29;;;;;;;17.20;2.58;;;;;;;8.40;100.00;100039.06;5077908;28;20064;-50
2022/01/08 10:17:16;;;;;;;17.27;2.80;;;;;;;8.38;100.00;100033.03;5078184;28;20052;-50
2022/01/08 10:19:45;;;;;;;16.75;2.25;;;;;;;8.36;100.00;100017.25;5077318;28;20079;-51
2022/01/08 10:22:19;;;;;;;11.50;3.17;;;;;;;8.38;100.00;100015.34;5076865;28;20389;-51
2022/01/08 10:24:47;;;;;;;14.60;2.72;;;;;;;8.42;100.00;99996.69;5077362;28;20061;-50
2022/01/08 10:27:15;;;;;;;18.48;2.55;;;;;;;8.38;100.00;99996.03;5077351;28;20057;-50
2022/01/08 10:29:54;;;;;;;16.08;3.40;;;;;;;8.41;100.00;99979.13;5077016;28;20083;-51
2022/01/08 10:32:28;;;;;;;17.65;2.20;;;;;;;8.44;100.00;99969.25;5076715;28;20063;-49
2022/01/08 10:34:56;;;;;;;19.30;2.53;;;;;;;8.43;100.00;99967.53;5077259;28;20159;-50
2022/01/08 10:37:24;;;;;;;16.20;3.70;;;;;;;8.39;100.00;99960.72;5077596;28;20052;-51
2022/01/08 10:39:55;;;;;;;16.30;2.13;;;;;;;8.44;100.00;99942.81;5076758;28;20053;-51
2022/01/08 10:42:24;;;;;;;19.40;2.97;;;;;;;8.49;100.00;99946.03;5076591;28;20057;-52
2022/01/08 10:44:52;;;;;;;13.02;2.33;;;;;;;8.49;100.00;99940.75;5076420;28;20411;-51
2022/01/08 10:47:21;;;;;;;18.80;3.20;;;;;;;8.55;100.00;99929.75;5077179;28;20400;-50
2022/01/08 10:50:00;;;;;;;18.33;2.97;;;;;;;8.52;100.00;99918.53;5076134;28;20052;-51
2022/01/08 10:52:29;;;;;;;15.98;2.03;;;;;;;8.44;100.00;99895.25;5077275;28;20389;-51
2022/01/08 10:54:59;;;;;;;18.10;3.95;;;;;;;8.39;100.00;99902.59;5077358;28;20110;-51
2022/01/08 10:57:32;;;;;;;11.25;2.00;;;;;;;8.36;100.00;99877.19;5076214;28;20053;-50
2022/01/08 11:00:00;;;;;;;14.30;1.67;;;;;;;8.37;100.00;99878.03;5076687;28;20060;-50
2022/01/08 11:02:29;;;;;;;11.38;1.92;;;;;;;8.34;100.00;99871.16;5076447;28;20416;-51
2022/01/08 11:04:58;;;;;;;17.40;2.42;;;;;;;8.33;100.00;99845.66;5077211;28;20057;-51
2022/01/08 11:07:28;;;;;;;21.00;4.50;;;;;;;8.37;100.00;99833.09;5076884;28;20059;-51
2022/01/08 11:09:59;;;;;;;16.77;4.45;;;;;;;8.40;100.00;99806.47;5076960;28;20400;-50
2022/01/08 11:12:32;;;;;;;12.82;2.50;;;;;;;8.42;100.00;99817.78;5077134;28;20058;-51
2022/01/08 11:15:23;;;;;;;15.30;2.65;;;;;;;8.50;100.00;99798.84;5076832;28;20056;-50
2022/01/08 11:17:54;;;;;;;10.27;2.17;;;;;;;8.50;100.00;99793.56;5075872;28;20088;-50
2022/01/08 11:20:45;;;;;;;16.85;2.08;;;;;;;8.51;100.00;99776.75;5076215;28;20052;-51
2022/01/08 11:23:15;;;;;;;12.82;2.05;;;;;;;8.52;100.00;99775.78;5075496;28;20587;-51
2022/01/08 11:25:46;;;;;;;11.90;1.80;;;;;;;8.53;100.00;99762.47;5075635;28;20060;-49
2022/01/08 11:28:16;;;;;;;13.07;1.60;;;;;;;8.55;100.00;99736.78;5075663;28;20057;-51
2022/01/08 11:30:45;;;;;;;9.18;1.50;;;;;;;8.70;100.00;99753.44;5076061;28;20068;-49
2022/01/08 11:33:19;;;;;;;7.30;1.52;;;;;;;8.81;100.00;99731.59;5076359;28;20407;-51
2022/01/08 11:35:50;;;;;;;2.92;0.75;;;;;;;8.89;100.00;99721.34;5076351;28;20096;-50
2022/01/08 11:38:20;;;;;;;8.50;1.00;;;;;;;8.97;100.00;99712.88;5075177;28;20067;-50
2022/01/08 11:40:51;;;;;;;6.78;1.10;;;;;;;9.10;100.00;99702.31;5075428;28;20512;-51
2022/01/08 11:43:21;;;;;;;7.53;1.02;;;;;;;9.20;100.00;99698.06;5076323;28;20083;-51